createdAt,value
2022-11-06T00:01:36.262Z,100.00
2022-11-06T00:04:02.849Z,100.00
2022-11-06T00:06:48.060Z,100.00
2022-11-06T00:09:19.329Z,100.00
2022-11-06T00:11:46.614Z,100.00
2022-11-06T00:14:13.877Z,100.00
2022-11-06T00:16:42.982Z,100.00
2022-11-06T00:19:10.323Z,100.00
2022-11-06T00:21:37.064Z,100.00
2022-11-06T00:24:06.299Z,100.00
2022-11-06T00:26:34.532Z,100.00
2022-11-06T00:29:02.475Z,100.00
2022-11-06T00:31:31.919Z,100.00
2022-11-06T00:34:00.130Z,100.00
2022-11-06T00:36:32.141Z,100.00
2022-11-06T00:38:59.783Z,100.00
2022-11-06T00:41:26.845Z,100.00
2022-11-06T00:43:58.915Z,100.00
2022-11-06T00:46:26.215Z,100.00
2022-11-06T00:48:53.920Z,100.00
2022-11-06T00:51:24.257Z,100.00
2022-11-06T00:53:56.190Z,100.00
2022-11-06T00:56:23.673Z,100.00
2022-11-06T00:58:50.425Z,100.00
2022-11-06T01:01:22.527Z,100.00
2022-11-06T01:03:57.059Z,100.00
2022-11-06T01:06:25.882Z,100.00
2022-11-06T01:08:53.384Z,100.00
2022-11-06T01:11:37.517Z,100.00
2022-11-06T01:14:15.393Z,100.00
2022-11-06T01:16:42.265Z,100.00
2022-11-06T01:19:27.636Z,100.00
2022-11-06T01:21:54.387Z,100.00
2022-11-06T01:24:24.972Z,100.00
2022-11-06T01:27:19.849Z,100.00
2022-11-06T01:29:38.190Z,100.00
2022-11-06T01:32:04.837Z,100.00
2022-11-06T01:34:31.464Z,100.00
2022-11-06T01:36:58.029Z,100.00
2022-11-06T01:39:24.469Z,100.00
2022-11-06T01:41:52.878Z,100.00
2022-11-06T01:44:41.184Z,100.00
2022-11-06T01:47:29.552Z,100.00
2022-11-06T01:50:00.301Z,100.00
2022-11-06T01:52:30.923Z,100.00
2022-11-06T01:55:06.621Z,100.00
2022-11-06T01:57:33.205Z,100.00
2022-11-06T02:00:00.131Z,100.00
2022-11-06T02:02:27.003Z,100.00
2022-11-06T02:04:53.606Z,100.00
2022-11-06T02:07:20.546Z,100.00
2022-11-06T02:09:47.221Z,100.00
2022-11-06T02:12:36.705Z,100.00
2022-11-06T02:15:30.461Z,100.00
2022-11-06T02:18:33.725Z,100.00
2022-11-06T02:21:09.237Z,100.00
2022-11-06T02:23:38.713Z,100.00
2022-11-06T02:26:24.325Z,100.00
2022-11-06T02:28:57.097Z,100.00
2022-11-06T02:31:28.822Z,100.00
2022-11-06T02:34:00.944Z,100.00
2022-11-06T02:36:34.291Z,100.00
2022-11-06T02:39:05.865Z,100.00
2022-11-06T02:41:37.217Z,100.00
2022-11-06T02:44:08.908Z,100.00
2022-11-06T02:46:40.672Z,100.00
2022-11-06T02:49:22.358Z,100.00
2022-11-06T02:51:53.462Z,100.00
2022-11-06T02:54:22.444Z,100.00
2022-11-06T02:56:52.253Z,100.00
2022-11-06T02:59:26.621Z,100.00
2022-11-06T03:02:00.957Z,100.00
2022-11-06T03:04:36.772Z,100.00
2022-11-06T03:07:11.536Z,100.00
2022-11-06T03:09:39.045Z,100.00
2022-11-06T03:12:31.344Z,100.00
2022-11-06T03:15:41.199Z,100.00
2022-11-06T03:18:30.003Z,100.00
2022-11-06T03:21:11.714Z,100.00
2022-11-06T03:23:48.428Z,100.00
2022-11-06T03:26:18.075Z,100.00
2022-11-06T03:28:52.924Z,100.00
2022-11-06T03:31:29.419Z,100.00
2022-11-06T03:34:02.911Z,100.00
2022-11-06T03:36:35.169Z,100.00
2022-11-06T03:39:07.144Z,100.00
2022-11-06T03:41:42.777Z,100.00
2022-11-06T03:44:14.299Z,100.00
2022-11-06T03:46:46.648Z,100.00
2022-11-06T03:49:18.830Z,100.00
2022-11-06T03:51:57.332Z,100.00
2022-11-06T03:54:27.800Z,100.00
2022-11-06T03:57:11.789Z,100.00
2022-11-06T03:59:44.514Z,100.00
2022-11-06T04:02:13.643Z,100.00
2022-11-06T04:04:51.260Z,100.00
2022-11-06T04:07:22.388Z,100.00
2022-11-06T04:10:14.981Z,100.00
2022-11-06T04:13:02.151Z,100.00
2022-11-06T04:15:33.612Z,100.00
2022-11-06T04:18:00.233Z,100.00
2022-11-06T04:21:00.662Z,100.00
2022-11-06T04:23:38.568Z,100.00
2022-11-06T04:26:39.161Z,100.00
2022-11-06T04:29:17.677Z,100.00
2022-11-06T04:32:05.752Z,100.00
2022-11-06T04:34:41.336Z,100.00
2022-11-06T04:37:17.007Z,100.00
2022-11-06T04:40:17.568Z,100.00
2022-11-06T04:42:56.529Z,100.00
2022-11-06T04:45:41.179Z,100.00
2022-11-06T04:48:10.193Z,100.00
2022-11-06T04:50:43.630Z,100.00
2022-11-06T04:53:11.742Z,100.00
2022-11-06T04:55:51.312Z,100.00
2022-11-06T04:58:17.879Z,100.00
2022-11-06T05:00:50.174Z,100.00
2022-11-06T05:03:18.527Z,100.00
2022-11-06T05:05:45.246Z,100.00
2022-11-06T05:08:17.035Z,100.00
2022-11-06T05:10:44.247Z,100.00
2022-11-06T05:13:11.115Z,100.00
2022-11-06T05:15:38.215Z,100.00
2022-11-06T05:18:05.625Z,100.00
2022-11-06T05:20:33.030Z,100.00
2022-11-06T05:23:02.320Z,100.00
2022-11-06T05:25:33.511Z,100.00
2022-11-06T05:28:00.465Z,100.00
2022-11-06T05:30:27.909Z,100.00
2022-11-06T05:32:54.422Z,100.00
2022-11-06T05:35:20.961Z,100.00
2022-11-06T05:37:47.837Z,100.00
2022-11-06T05:40:15.144Z,100.00
2022-11-06T05:42:43.232Z,100.00
2022-11-06T05:45:11.019Z,100.00
2022-11-06T05:47:40.785Z,100.00
2022-11-06T05:50:08.809Z,100.00
2022-11-06T05:52:35.803Z,100.00
2022-11-06T05:55:02.387Z,100.00
2022-11-06T05:57:28.906Z,100.00
2022-11-06T05:59:55.316Z,100.00
2022-11-06T06:02:21.938Z,100.00
2022-11-06T06:04:48.635Z,100.00
2022-11-06T06:07:15.042Z,100.00
2022-11-06T06:09:41.617Z,100.00
2022-11-06T06:12:10.798Z,100.00
2022-11-06T06:14:37.278Z,100.00
2022-11-06T06:17:03.873Z,100.00
2022-11-06T06:19:30.541Z,100.00
2022-11-06T06:21:57.050Z,100.00
2022-11-06T06:24:23.516Z,100.00
2022-11-06T06:26:50.003Z,100.00
2022-11-06T06:29:16.682Z,100.00
2022-11-06T06:31:43.186Z,100.00
2022-11-06T06:34:09.764Z,100.00
2022-11-06T06:36:36.291Z,100.00
2022-11-06T06:39:02.942Z,100.00
2022-11-06T06:41:29.393Z,100.00
2022-11-06T06:43:55.766Z,100.00
2022-11-06T06:46:22.330Z,100.00
2022-11-06T06:48:48.811Z,100.00
2022-11-06T06:51:18.419Z,100.00
2022-11-06T06:53:47.580Z,100.00
2022-11-06T06:56:13.992Z,100.00
2022-11-06T06:58:40.436Z,100.00
2022-11-06T07:01:10.415Z,100.00
2022-11-06T07:03:38.377Z,100.00
2022-11-06T07:06:05.858Z,100.00
2022-11-06T07:08:32.816Z,100.00
2022-11-06T07:11:06.798Z,100.00
2022-11-06T07:13:36.206Z,100.00
2022-11-06T07:16:08.242Z,100.00
2022-11-06T07:18:35.582Z,100.00
2022-11-06T07:21:07.794Z,100.00
2022-11-06T07:23:35.888Z,100.00
2022-11-06T07:26:03.418Z,100.00
2022-11-06T07:28:29.940Z,100.00
2022-11-06T07:31:03.360Z,100.00
2022-11-06T07:33:30.037Z,100.00
2022-11-06T07:36:19.601Z,100.00
2022-11-06T07:38:46.133Z,100.00
2022-11-06T07:41:14.230Z,100.00
2022-11-06T07:43:41.855Z,100.00
2022-11-06T07:46:10.801Z,100.00
2022-11-06T07:48:39.446Z,100.00
2022-11-06T07:51:08.412Z,100.00
2022-11-06T07:53:35.877Z,100.00
2022-11-06T07:56:02.602Z,100.00
2022-11-06T07:58:29.910Z,100.00
2022-11-06T08:00:58.398Z,100.00
2022-11-06T08:03:26.623Z,100.00
2022-11-06T08:05:53.078Z,100.00
2022-11-06T08:08:19.513Z,100.00
2022-11-06T08:10:47.671Z,100.00
2022-11-06T08:13:16.775Z,100.00
2022-11-06T08:15:44.121Z,100.00
2022-11-06T08:18:12.430Z,100.00
2022-11-06T08:20:39.852Z,100.00
2022-11-06T08:23:08.439Z,100.00
2022-11-06T08:25:35.021Z,100.00
2022-11-06T08:28:03.266Z,100.00
2022-11-06T08:30:31.331Z,100.00
2022-11-06T08:33:03.912Z,100.00
2022-11-06T08:35:30.919Z,100.00
2022-11-06T08:37:57.732Z,100.00
2022-11-06T08:40:30.378Z,100.00
2022-11-06T08:43:02.304Z,100.00
2022-11-06T08:45:29.207Z,100.00
2022-11-06T08:48:00.279Z,100.00
2022-11-06T08:50:26.801Z,100.00
2022-11-06T08:52:56.874Z,100.00
2022-11-06T08:55:23.532Z,100.00
2022-11-06T08:57:49.998Z,100.00
2022-11-06T09:00:16.521Z,100.00
2022-11-06T09:02:43.036Z,100.00
2022-11-06T09:05:10.249Z,100.00
2022-11-06T09:07:36.702Z,100.00
2022-11-06T09:10:03.236Z,100.00
2022-11-06T09:12:29.712Z,100.00
2022-11-06T09:14:56.087Z,100.00
2022-11-06T09:17:24.306Z,100.00
2022-11-06T09:19:51.369Z,100.00
2022-11-06T09:22:18.433Z,100.00
2022-11-06T09:25:02.481Z,100.00
2022-11-06T09:27:30.079Z,100.00
2022-11-06T09:29:56.556Z,100.00
2022-11-06T09:32:24.006Z,100.00
2022-11-06T09:34:50.870Z,100.00
2022-11-06T09:37:17.399Z,100.00
2022-11-06T09:39:43.915Z,100.00
2022-11-06T09:42:19.580Z,100.00
2022-11-06T09:45:01.630Z,100.00
2022-11-06T09:47:33.226Z,100.00
2022-11-06T09:50:01.976Z,100.00
2022-11-06T09:52:47.733Z,100.00
2022-11-06T09:55:34.641Z,100.00
2022-11-06T09:58:09.618Z,100.00
2022-11-06T10:00:36.126Z,100.00
2022-11-06T10:03:12.482Z,100.00
2022-11-06T10:05:41.044Z,100.00
2022-11-06T10:08:15.855Z,100.00
2022-11-06T10:10:45.283Z,100.00
2022-11-06T10:13:26.928Z,100.00
2022-11-06T10:16:11.672Z,100.00
2022-11-06T10:18:48.733Z,100.00
2022-11-06T10:21:21.065Z,100.00
2022-11-06T10:23:49.308Z,100.00
2022-11-06T10:26:15.958Z,100.00
2022-11-06T10:29:00.881Z,100.00
2022-11-06T10:31:34.231Z,100.00
2022-11-06T10:34:12.825Z,100.00
2022-11-06T10:36:47.339Z,100.00
2022-11-06T10:39:19.313Z,100.00
2022-11-06T10:41:49.109Z,100.00
2022-11-06T10:44:19.677Z,100.00
2022-11-06T10:46:48.923Z,100.00
2022-11-06T10:49:20.545Z,100.00
2022-11-06T10:52:04.953Z,100.00
2022-11-06T10:54:43.744Z,100.00
2022-11-06T10:57:28.780Z,100.00
2022-11-06T10:59:55.385Z,100.00
2022-11-06T11:02:24.707Z,100.00
2022-11-06T11:04:56.734Z,100.00
2022-11-06T11:07:25.396Z,100.00
2022-11-06T11:09:51.852Z,100.00
2022-11-06T11:12:21.438Z,100.00
2022-11-06T11:32:21.145Z,100.00
2022-11-06T11:34:56.841Z,100.00
2022-11-06T11:37:36.040Z,100.00
2022-11-06T11:40:22.556Z,100.00
2022-11-06T11:42:49.469Z,100.00
2022-11-06T11:45:18.798Z,100.00
2022-11-06T11:47:51.389Z,100.00
2022-11-06T11:50:31.535Z,100.00
2022-11-06T11:53:08.708Z,100.00
2022-11-06T11:55:40.279Z,100.00
2022-11-06T11:58:27.297Z,100.00
2022-11-06T12:01:00.252Z,100.00
2022-11-06T12:03:32.784Z,100.00
2022-11-06T12:06:16.017Z,100.00
2022-11-06T12:08:51.106Z,100.00
2022-11-06T12:11:26.267Z,100.00
2022-11-06T12:14:18.916Z,100.00
2022-11-06T12:16:50.274Z,100.00
2022-11-06T12:19:20.466Z,100.00
2022-11-06T12:21:56.671Z,100.00
2022-11-06T12:24:30.345Z,100.00
2022-11-06T12:27:06.948Z,100.00
2022-11-06T12:30:01.400Z,96.06
2022-11-06T12:32:51.541Z,97.19
2022-11-06T12:35:29.149Z,98.68
2022-11-06T12:38:04.346Z,99.02
2022-11-06T12:40:37.728Z,99.11
2022-11-06T12:43:22.478Z,99.21
2022-11-06T12:46:26.521Z,98.02
2022-11-06T12:49:24.217Z,98.64
2022-11-06T12:52:22.184Z,97.88
2022-11-06T12:55:10.217Z,99.53
2022-11-06T12:58:14.277Z,96.77
2022-11-06T13:00:52.068Z,97.37
2022-11-06T13:03:52.679Z,96.90
2022-11-06T13:06:33.605Z,97.03
2022-11-06T13:09:03.127Z,97.52
2022-11-06T13:11:54.452Z,95.86
2022-11-06T13:14:38.668Z,95.44
2022-11-06T13:17:25.286Z,95.36
2022-11-06T13:20:08.223Z,92.88
2022-11-06T13:23:01.130Z,93.74
2022-11-06T13:25:51.241Z,94.81
2022-11-06T13:28:32.902Z,91.52
2022-11-06T13:31:03.081Z,94.53
2022-11-06T13:33:37.244Z,93.37
2022-11-06T13:36:04.254Z,93.66
2022-11-06T13:38:37.675Z,94.01
2022-11-06T13:41:19.929Z,95.15
2022-11-06T13:43:52.970Z,97.20
2022-11-06T13:46:25.450Z,94.84
2022-11-06T13:49:16.697Z,95.00
2022-11-06T13:51:56.307Z,94.05
2022-11-06T13:54:50.297Z,92.64
2022-11-06T13:57:35.462Z,93.84
2022-11-06T14:00:17.772Z,95.11
2022-11-06T14:03:18.531Z,94.07
2022-11-06T14:05:56.135Z,95.40
2022-11-06T14:08:40.243Z,94.05
2022-11-06T14:11:19.233Z,94.94
2022-11-06T14:14:06.456Z,91.29
2022-11-06T14:16:37.346Z,93.51
2022-11-06T14:19:11.516Z,96.70
2022-11-06T14:21:37.983Z,97.17
2022-11-06T14:24:14.662Z,94.99
2022-11-06T14:26:46.992Z,94.42
2022-11-06T14:29:28.658Z,94.68
2022-11-06T14:32:08.668Z,97.56
2022-11-06T14:34:36.150Z,98.47
2022-11-06T14:37:17.807Z,98.25
2022-11-06T14:39:56.248Z,99.24
2022-11-06T14:42:32.427Z,98.95
2022-11-06T14:45:00.806Z,98.42
2022-11-06T14:47:38.878Z,98.17
2022-11-06T14:50:27.468Z,99.58
2022-11-06T14:53:01.793Z,99.07
2022-11-06T14:55:45.117Z,99.79
2022-11-06T14:58:22.989Z,100.00
2022-11-06T15:00:51.500Z,100.00
2022-11-06T15:03:52.489Z,100.00
2022-11-06T15:06:18.984Z,99.96
2022-11-06T15:08:45.546Z,100.00
2022-11-06T15:11:48.218Z,100.00
2022-11-06T15:14:14.803Z,100.00
2022-11-06T15:16:41.283Z,100.00
2022-11-06T15:19:21.450Z,100.00
2022-11-06T15:21:54.692Z,100.00
2022-11-06T15:24:28.287Z,100.00
2022-11-06T15:26:59.194Z,100.00
2022-11-06T15:29:28.983Z,100.00
2022-11-06T15:32:02.791Z,100.00
2022-11-06T15:34:34.618Z,100.00
2022-11-06T15:37:11.905Z,100.00
2022-11-06T15:40:01.325Z,100.00
2022-11-06T15:42:31.832Z,100.00
2022-11-06T15:45:15.661Z,100.00
2022-11-06T15:47:57.220Z,100.00
2022-11-06T15:50:35.126Z,100.00
2022-11-06T15:53:20.839Z,100.00
2022-11-06T15:56:05.015Z,100.00
2022-11-06T15:58:34.440Z,100.00
2022-11-06T16:01:03.055Z,100.00
2022-11-06T16:03:32.984Z,100.00
2022-11-06T16:06:03.887Z,100.00
2022-11-06T16:08:32.427Z,100.00
2022-11-06T16:11:00.002Z,100.00
2022-11-06T16:13:27.584Z,100.00
2022-11-06T16:15:54.084Z,100.00
2022-11-06T16:18:29.794Z,100.00
2022-11-06T16:21:24.047Z,100.00
2022-11-06T16:23:54.359Z,100.00
2022-11-06T16:26:25.590Z,100.00
2022-11-06T16:28:54.685Z,100.00
2022-11-06T16:31:24.079Z,100.00
2022-11-06T16:34:00.859Z,100.00
2022-11-06T16:36:29.671Z,100.00
2022-11-06T16:39:31.042Z,100.00
2022-11-06T16:42:14.229Z,100.00
2022-11-06T16:44:40.693Z,100.00
2022-11-06T16:47:09.858Z,100.00
2022-11-06T16:49:38.706Z,100.00
2022-11-06T16:52:23.090Z,100.00
2022-11-06T16:54:52.181Z,100.00
2022-11-06T16:57:23.158Z,100.00
2022-11-06T17:00:02.825Z,100.00
2022-11-06T17:02:33.093Z,100.00
2022-11-06T17:05:33.817Z,100.00
2022-11-06T17:08:18.463Z,100.00
2022-11-06T17:10:51.671Z,100.00
2022-11-06T17:13:19.842Z,100.00
2022-11-06T17:15:53.858Z,100.00
2022-11-06T17:18:23.190Z,100.00
2022-11-06T17:21:13.161Z,100.00
2022-11-06T17:23:40.297Z,100.00
2022-11-06T17:26:23.918Z,100.00
2022-11-06T17:28:51.110Z,100.00
2022-11-06T17:31:19.048Z,100.00
2022-11-06T17:33:46.235Z,100.00
2022-11-06T17:36:27.620Z,100.00
2022-11-06T17:38:55.982Z,100.00
2022-11-06T17:41:30.143Z,100.00
2022-11-06T17:44:06.848Z,100.00
2022-11-06T17:46:36.543Z,100.00
2022-11-06T17:49:04.184Z,100.00
2022-11-06T17:51:50.072Z,100.00
2022-11-06T17:54:18.030Z,100.00
2022-11-06T17:56:44.931Z,100.00
2022-11-06T17:59:13.226Z,100.00
2022-11-06T18:01:41.519Z,100.00
2022-11-06T18:04:08.211Z,100.00
2022-11-06T18:06:34.821Z,100.00
2022-11-06T18:09:05.788Z,100.00
2022-11-06T18:11:32.878Z,100.00
2022-11-06T18:13:59.426Z,100.00
2022-11-06T18:16:27.971Z,100.00
2022-11-06T18:18:55.045Z,100.00
2022-11-06T18:21:22.069Z,100.00
2022-11-06T18:23:48.695Z,100.00
2022-11-06T18:26:15.538Z,100.00
2022-11-06T18:28:42.110Z,100.00
2022-11-06T18:31:08.596Z,100.00
2022-11-06T18:33:35.173Z,100.00
2022-11-06T18:36:05.354Z,100.00
2022-11-06T18:38:33.076Z,100.00
2022-11-06T18:40:59.574Z,100.00
2022-11-06T18:43:25.943Z,100.00
2022-11-06T18:45:52.408Z,100.00
2022-11-06T18:48:21.589Z,100.00
2022-11-06T18:50:48.773Z,100.00
2022-11-06T18:53:15.355Z,100.00
2022-11-06T18:55:48.468Z,100.00
2022-11-06T18:58:15.369Z,100.00
2022-11-06T19:00:42.176Z,100.00
2022-11-06T19:03:08.537Z,100.00
2022-11-06T19:05:35.264Z,100.00
2022-11-06T19:08:02.698Z,100.00
2022-11-06T19:10:31.228Z,100.00
2022-11-06T19:12:59.633Z,100.00
2022-11-06T19:15:26.558Z,100.00
2022-11-06T19:17:54.751Z,100.00
2022-11-06T19:20:22.182Z,100.00
2022-11-06T19:22:52.699Z,100.00
2022-11-06T19:25:20.286Z,100.00
2022-11-06T19:27:47.789Z,100.00
2022-11-06T19:30:15.512Z,100.00
2022-11-06T19:32:41.972Z,100.00
2022-11-06T19:35:08.627Z,100.00
2022-11-06T19:37:36.148Z,100.00
2022-11-06T19:40:06.131Z,100.00
2022-11-06T19:42:33.273Z,100.00
2022-11-06T19:45:00.238Z,100.00
2022-11-06T19:47:28.152Z,100.00
2022-11-06T19:49:54.681Z,100.00
2022-11-06T19:52:41.365Z,100.00
2022-11-06T19:55:26.032Z,100.00
2022-11-06T19:57:57.914Z,100.00
2022-11-06T20:00:24.448Z,100.00
2022-11-06T20:02:51.133Z,100.00
2022-11-06T20:05:18.261Z,100.00
2022-11-06T20:07:44.849Z,100.00
2022-11-06T20:10:11.479Z,100.00
2022-11-06T20:12:38.081Z,100.00
2022-11-06T20:15:05.179Z,100.00
2022-11-06T20:17:31.689Z,100.00
2022-11-06T20:19:58.247Z,100.00
2022-11-06T20:22:25.384Z,100.00
2022-11-06T20:24:51.969Z,100.00
2022-11-06T20:27:18.612Z,100.00
2022-11-06T20:29:45.374Z,100.00
2022-11-06T20:32:17.708Z,100.00
2022-11-06T20:34:45.628Z,100.00
2022-11-06T20:37:12.508Z,100.00
2022-11-06T20:39:38.987Z,100.00
2022-11-06T20:42:05.371Z,100.00
2022-11-06T20:44:33.101Z,100.00
2022-11-06T20:46:59.627Z,100.00
2022-11-06T20:49:26.032Z,100.00
2022-11-06T20:52:13.322Z,100.00
2022-11-06T20:54:43.724Z,100.00
2022-11-06T20:57:13.123Z,100.00
2022-11-06T20:59:39.526Z,100.00
2022-11-06T21:02:06.436Z,100.00
2022-11-06T21:04:33.030Z,100.00
2022-11-06T21:06:59.449Z,100.00
2022-11-06T21:09:26.092Z,100.00
2022-11-06T21:11:52.533Z,100.00
2022-11-06T21:14:18.985Z,100.00
2022-11-06T21:16:45.919Z,100.00
2022-11-06T21:19:12.434Z,100.00
2022-11-06T21:21:39.562Z,100.00
2022-11-06T21:24:06.770Z,100.00
2022-11-06T21:26:36.010Z,100.00
2022-11-06T21:29:04.305Z,100.00
2022-11-06T21:31:31.683Z,100.00
2022-11-06T21:33:59.947Z,100.00
2022-11-06T21:36:32.510Z,100.00
2022-11-06T21:39:01.840Z,100.00
2022-11-06T21:41:30.304Z,100.00
2022-11-06T21:43:57.449Z,100.00
2022-11-06T21:46:24.322Z,100.00
2022-11-06T21:48:51.643Z,100.00
2022-11-06T21:51:21.472Z,100.00
2022-11-06T21:54:07.618Z,100.00
2022-11-06T21:56:35.030Z,100.00
2022-11-06T21:59:03.073Z,100.00
2022-11-06T22:01:30.950Z,100.00
2022-11-06T22:03:58.073Z,100.00
2022-11-06T22:06:26.074Z,100.00
2022-11-06T22:08:54.354Z,100.00
2022-11-06T22:11:24.858Z,100.00
2022-11-06T22:13:52.626Z,100.00
2022-11-06T22:16:22.796Z,100.00
2022-11-06T22:18:49.458Z,100.00
2022-11-06T22:21:21.586Z,100.00
2022-11-06T22:23:48.989Z,100.00
2022-11-06T22:26:18.676Z,100.00
2022-11-06T22:28:45.924Z,100.00
2022-11-06T22:31:12.778Z,100.00
2022-11-06T22:33:39.712Z,100.00
2022-11-06T22:36:06.560Z,100.00
2022-11-06T22:38:33.805Z,100.00
2022-11-06T22:41:02.684Z,100.00
2022-11-06T22:43:30.282Z,100.00
2022-11-06T22:46:12.717Z,100.00
2022-11-06T22:48:39.257Z,100.00
2022-11-06T22:51:07.044Z,100.00
2022-11-06T22:53:33.859Z,100.00
2022-11-06T22:56:01.210Z,100.00
2022-11-06T22:58:29.022Z,100.00
2022-11-06T23:17:19.375Z,100.00
2022-11-06T23:19:45.904Z,100.00
2022-11-06T23:22:31.030Z,100.00
2022-11-06T23:24:57.602Z,100.00
2022-11-06T23:27:25.600Z,100.00
2022-11-06T23:29:52.211Z,100.00
2022-11-06T23:32:18.771Z,100.00
2022-11-06T23:34:45.184Z,100.00
2022-11-06T23:37:11.673Z,99.73
2022-11-06T23:39:38.711Z,100.00
2022-11-06T23:42:05.301Z,98.60
2022-11-06T23:44:50.529Z,99.45
2022-11-06T23:47:17.026Z,100.00
2022-11-06T23:49:43.437Z,100.00
2022-11-06T23:52:09.999Z,100.00
2022-11-06T23:54:36.535Z,100.00
2022-11-06T23:57:02.971Z,100.00
2022-11-06T23:59:29.468Z,99.38
